sensor_id;sensor_type;location;lat;lon;timestamp;pressure;altitude;pressure_sealevel;temperature;humidity
71996;BME280;59862;47.732;7.346;2023-01-24T00:00:44;99155.41;;;0.48;86.24
71996;BME280;59862;47.732;7.346;2023-01-24T00:03:11;99157.48;;;0.50;86.25
71996;BME280;59862;47.732;7.346;2023-01-24T00:05:40;99162.96;;;0.61;86.18
71996;BME280;59862;47.732;7.346;2023-01-24T00:08:10;99154.78;;;0.58;86.01
71996;BME280;59862;47.732;7.346;2023-01-24T00:10:39;99163.36;;;0.62;85.93
71996;BME280;59862;47.732;7.346;2023-01-24T00:13:07;99154.50;;;0.56;85.90
71996;BME280;59862;47.732;7.346;2023-01-24T00:15:35;99075.06;;;0.10;85.87
71996;BME280;59862;47.732;7.346;2023-01-24T00:18:03;99160.72;;;0.62;85.96
71996;BME280;59862;47.732;7.346;2023-01-24T00:20:30;99163.94;;;0.67;85.94
71996;BME280;59862;47.732;7.346;2023-01-24T00:22:58;99168.45;;;0.72;85.81
71996;BME280;59862;47.732;7.346;2023-01-24T00:25:26;99170.44;;;0.68;85.73
71996;BME280;59862;47.732;7.346;2023-01-24T00:27:53;99163.94;;;0.67;85.80
71996;BME280;59862;47.732;7.346;2023-01-24T00:30:20;99173.36;;;0.64;85.81
71996;BME280;59862;47.732;7.346;2023-01-24T00:32:48;99171.75;;;0.68;85.81
71996;BME280;59862;47.732;7.346;2023-01-24T00:35:16;99177.31;;;0.64;85.79
71996;BME280;59862;47.732;7.346;2023-01-24T00:37:43;99176.28;;;0.66;85.85
71996;BME280;59862;47.732;7.346;2023-01-24T00:40:11;99167.14;;;0.65;85.81
71996;BME280;59862;47.732;7.346;2023-01-24T00:42:39;99178.64;;;0.64;85.84
71996;BME280;59862;47.732;7.346;2023-01-24T00:45:07;99180.70;;;0.66;85.92
71996;BME280;59862;47.732;7.346;2023-01-24T00:47:35;99175.06;;;0.65;85.94
71996;BME280;59862;47.732;7.346;2023-01-24T00:50:02;99181.29;;;0.71;85.95
71996;BME280;59862;47.732;7.346;2023-01-24T00:52:30;99185.05;;;0.74;85.92
71996;BME280;59862;47.732;7.346;2023-01-24T00:54:57;99189.30;;;0.76;85.82
71996;BME280;59862;47.732;7.346;2023-01-24T00:57:24;99189.30;;;0.76;85.77
71996;BME280;59862;47.732;7.346;2023-01-24T00:59:52;99190.33;;;0.74;85.83
71996;BME280;59862;47.732;7.346;2023-01-24T01:02:19;99197.69;;;0.76;85.91
71996;BME280;59862;47.732;7.346;2023-01-24T01:04:47;99202.97;;;0.76;85.91
71996;BME280;59862;47.732;7.346;2023-01-24T01:07:14;99198.64;;;0.75;85.89
71996;BME280;59862;47.732;7.346;2023-01-24T01:09:42;99200.43;;;0.74;85.96
71996;BME280;59862;47.732;7.346;2023-01-24T01:12:09;99200.16;;;0.79;85.96
71996;BME280;59862;47.732;7.346;2023-01-24T01:14:37;99207.52;;;0.81;85.84
71996;BME280;59862;47.732;7.346;2023-01-24T01:17:04;99210.16;;;0.81;85.84
71996;BME280;59862;47.732;7.346;2023-01-24T01:19:32;99211.29;;;0.77;85.90
71996;BME280;59862;47.732;7.346;2023-01-24T01:21:59;99217.23;;;0.73;86.00
71996;BME280;59862;47.732;7.346;2023-01-24T01:24:26;99216.17;;;0.76;86.07
71996;BME280;59862;47.732;7.346;2023-01-24T01:26:54;99220.89;;;0.78;86.03
71996;BME280;59862;47.732;7.346;2023-01-24T01:29:21;99213.07;;;0.76;85.97
71996;BME280;59862;47.732;7.346;2023-01-24T01:31:48;99224.88;;;0.85;85.99
71996;BME280;59862;47.732;7.346;2023-01-24T01:34:16;99228.08;;;0.83;85.90
71996;BME280;59862;47.732;7.346;2023-01-24T01:36:44;99228.77;;;0.87;85.83
71996;BME280;59862;47.732;7.346;2023-01-24T01:39:11;99229.59;;;0.87;85.78
71996;BME280;59862;47.732;7.346;2023-01-24T01:41:38;99234.88;;;0.87;85.83
71996;BME280;59862;47.732;7.346;2023-01-24T01:44:27;99231.59;;;0.91;85.82
71996;BME280;59862;47.732;7.346;2023-01-24T01:47:24;99227.62;;;0.91;85.81
71996;BME280;59862;47.732;7.346;2023-01-24T01:52:36;99236.59;;;0.88;85.88
71996;BME280;59862;47.732;7.346;2023-01-24T01:55:07;99233.48;;;0.89;85.97
71996;BME280;59862;47.732;7.346;2023-01-24T01:57:35;99229.77;;;0.91;85.98
71996;BME280;59862;47.732;7.346;2023-01-24T02:00:09;99232.89;;;0.98;86.03
71996;BME280;59862;47.732;7.346;2023-01-24T02:02:38;99233.00;;;0.96;85.91
71996;BME280;59862;47.732;7.346;2023-01-24T02:05:07;99236.03;;;0.97;85.85
71996;BME280;59862;47.732;7.346;2023-01-24T02:07:50;99233.95;;;0.95;85.97
71996;BME280;59862;47.732;7.346;2023-01-24T02:10:22;99236.48;;;0.90;86.06
71996;BME280;59862;47.732;7.346;2023-01-24T02:12:52;99232.16;;;0.89;86.08
71996;BME280;59862;47.732;7.346;2023-01-24T02:15:22;99243.48;;;0.91;86.18
71996;BME280;59862;47.732;7.346;2023-01-24T02:18:10;99238.84;;;0.94;86.16
71996;BME280;59862;47.732;7.346;2023-01-24T02:20:43;99239.14;;;0.97;86.04
71996;BME280;59862;47.732;7.346;2023-01-24T02:23:33;99238.38;;;0.95;86.02
71996;BME280;59862;47.732;7.346;2023-01-24T02:28:37;99242.81;;;0.94;86.12
71996;BME280;59862;47.732;7.346;2023-01-24T02:31:05;99253.56;;;0.98;86.25
71996;BME280;59862;47.732;7.346;2023-01-24T02:33:33;99251.20;;;0.94;86.27
71996;BME280;59862;47.732;7.346;2023-01-24T02:36:23;99254.05;;;0.91;86.35
71996;BME280;59862;47.732;7.346;2023-01-24T02:38:50;99252.92;;;0.95;86.35
71996;BME280;59862;47.732;7.346;2023-01-24T02:41:19;99247.23;;;0.94;86.31
71996;BME280;59862;47.732;7.346;2023-01-24T02:43:48;99250.91;;;0.91;86.35
71996;BME280;59862;47.732;7.346;2023-01-24T02:46:16;99255.35;;;0.98;86.34
71996;BME280;59862;47.732;7.346;2023-01-24T02:48:44;99255.44;;;0.89;86.33
71996;BME280;59862;47.732;7.346;2023-01-24T02:51:11;99256.42;;;0.95;86.42
71996;BME280;59862;47.732;7.346;2023-01-24T02:53:57;99251.48;;;0.89;86.50
71996;BME280;59862;47.732;7.346;2023-01-24T02:56:24;99250.55;;;0.90;86.53
71996;BME280;59862;47.732;7.346;2023-01-24T02:59:09;99253.84;;;0.94;86.51
71996;BME280;59862;47.732;7.346;2023-01-24T03:01:36;99254.61;;;0.89;86.49
71996;BME280;59862;47.732;7.346;2023-01-24T03:04:04;99258.77;;;0.93;86.58
71996;BME280;59862;47.732;7.346;2023-01-24T03:06:32;99267.91;;;0.94;86.53
71996;BME280;59862;47.732;7.346;2023-01-24T03:09:00;99264.34;;;0.95;86.48
71996;BME280;59862;47.732;7.346;2023-01-24T03:11:29;99265.66;;;0.95;86.49
71996;BME280;59862;47.732;7.346;2023-01-24T03:13:56;99273.02;;;0.97;86.44
71996;BME280;59862;47.732;7.346;2023-01-24T03:16:41;99267.91;;;0.94;86.43
71996;BME280;59862;47.732;7.346;2023-01-24T03:19:27;99271.60;;;0.99;86.39
71996;BME280;59862;47.732;7.346;2023-01-24T03:22:12;99278.66;;;0.91;86.42
71996;BME280;59862;47.732;7.346;2023-01-24T03:24:57;99267.05;;;0.94;86.47
71996;BME280;59862;47.732;7.346;2023-01-24T03:27:43;99279.22;;;0.89;86.45
71996;BME280;59862;47.732;7.346;2023-01-24T03:30:28;99284.87;;;0.83;86.64
71996;BME280;59862;47.732;7.346;2023-01-24T03:33:13;99284.98;;;0.82;86.77
71996;BME280;59862;47.732;7.346;2023-01-24T03:35:58;99284.50;;;0.89;86.84
71996;BME280;59862;47.732;7.346;2023-01-24T03:38:28;99287.90;;;0.91;86.67
71996;BME280;59862;47.732;7.346;2023-01-24T03:41:13;99288.00;;;0.90;86.60
71996;BME280;59862;47.732;7.346;2023-01-24T03:43:40;99288.48;;;0.82;86.68
71996;BME280;59862;47.732;7.346;2023-01-24T03:46:10;99300.16;;;0.85;86.79
71996;BME280;59862;47.732;7.346;2023-01-24T03:48:37;99299.43;;;0.90;86.74
71996;BME280;59862;47.732;7.346;2023-01-24T03:51:05;99303.00;;;0.89;86.67
71996;BME280;59862;47.732;7.346;2023-01-24T03:53:50;99301.41;;;0.87;86.66
71996;BME280;59862;47.732;7.346;2023-01-24T03:56:18;99303.01;;;0.82;86.76
71996;BME280;59862;47.732;7.346;2023-01-24T03:58:45;99310.56;;;0.88;86.85
71996;BME280;59862;47.732;7.346;2023-01-24T04:01:12;99303.39;;;0.90;86.79
71996;BME280;59862;47.732;7.346;2023-01-24T04:03:40;99309.14;;;0.90;86.71
71996;BME280;59862;47.732;7.346;2023-01-24T04:06:08;99314.72;;;0.92;86.82
71996;BME280;59862;47.732;7.346;2023-01-24T04:08:35;99307.36;;;0.90;86.80
71996;BME280;59862;47.732;7.346;2023-01-24T04:11:02;99306.96;;;0.89;86.70
71996;BME280;59862;47.732;7.346;2023-01-24T04:13:30;99311.15;;;0.93;86.77
71996;BME280;59862;47.732;7.346;2023-01-24T04:15:58;99312.81;;;0.87;86.79
71996;BME280;59862;47.732;7.346;2023-01-24T04:18:25;99314.89;;;0.89;86.86
71996;BME280;59862;47.732;7.346;2023-01-24T04:20:52;99314.89;;;0.89;86.81
71996;BME280;59862;47.732;7.346;2023-01-24T04:23:20;99317.53;;;0.89;86.67
71996;BME280;59862;47.732;7.346;2023-01-24T04:25:51;99318.02;;;0.89;86.69
71996;BME280;59862;47.732;7.346;2023-01-24T04:28:26;99317.16;;;0.88;86.64
71996;BME280;59862;47.732;7.346;2023-01-24T04:30:58;99320.67;;;0.89;86.69
71996;BME280;59862;47.732;7.346;2023-01-24T04:33:26;99318.02;;;0.89;86.69
71996;BME280;59862;47.732;7.346;2023-01-24T04:35:58;99326.12;;;0.86;86.77
71996;BME280;59862;47.732;7.346;2023-01-24T04:38:26;99325.28;;;0.92;86.81
71996;BME280;59862;47.732;7.346;2023-01-24T04:40:59;99319.25;;;0.90;86.73
71996;BME280;59862;47.732;7.346;2023-01-24T04:43:27;99324.04;;;0.84;86.79
71996;BME280;59862;47.732;7.346;2023-01-24T04:45:56;99330.17;;;0.91;86.84
71996;BME280;59862;47.732;7.346;2023-01-24T04:48:24;99331.16;;;0.97;86.72
71996;BME280;59862;47.732;7.346;2023-01-24T04:50:51;99330.20;;;0.98;86.53
71996;BME280;59862;47.732;7.346;2023-01-24T04:53:19;99329.64;;;0.93;86.42
71996;BME280;59862;47.732;7.346;2023-01-24T04:55:46;99321.86;;;0.83;86.53
71996;BME280;59862;47.732;7.346;2023-01-24T04:58:14;99326.78;;;0.82;86.65
71996;BME280;59862;47.732;7.346;2023-01-24T05:00:41;99326.98;;;0.86;86.68
71996;BME280;59862;47.732;7.346;2023-01-24T05:03:09;99336.22;;;0.86;86.58
71996;BME280;59862;47.732;7.346;2023-01-24T05:05:36;99341.88;;;0.80;86.62
71996;BME280;59862;47.732;7.346;2023-01-24T05:08:04;99346.80;;;0.86;86.69
71996;BME280;59862;47.732;7.346;2023-01-24T05:10:31;99343.78;;;0.92;86.60
71996;BME280;59862;47.732;7.346;2023-01-24T05:12:59;99343.95;;;0.89;86.53
71996;BME280;59862;47.732;7.346;2023-01-24T05:15:26;99345.94;;;0.86;86.54
71996;BME280;59862;47.732;7.346;2023-01-24T05:17:54;99343.30;;;0.86;86.58
71996;BME280;59862;47.732;7.346;2023-01-24T05:20:21;99350.00;;;0.84;86.59
71996;BME280;59862;47.732;7.346;2023-01-24T05:22:49;99345.11;;;0.92;86.56
71996;BME280;59862;47.732;7.346;2023-01-24T05:25:17;99345.69;;;0.97;86.47
71996;BME280;59862;47.732;7.346;2023-01-24T05:27:45;99351.98;;;0.88;86.41
71996;BME280;59862;47.732;7.346;2023-01-24T05:30:13;99359.80;;;0.89;86.48
71996;BME280;59862;47.732;7.346;2023-01-24T05:32:40;99352.27;;;0.90;86.45
71996;BME280;59862;47.732;7.346;2023-01-24T05:35:09;99351.52;;;0.88;86.48
71996;BME280;59862;47.732;7.346;2023-01-24T05:37:38;99356.97;;;0.85;86.51
71996;BME280;59862;47.732;7.346;2023-01-24T05:40:06;99362.25;;;0.85;86.55
71996;BME280;59862;47.732;7.346;2023-01-24T05:42:34;99358.84;;;0.83;86.64
71996;BME280;59862;47.732;7.346;2023-01-24T05:45:02;99363.50;;;0.87;86.59
71996;BME280;59862;47.732;7.346;2023-01-24T05:47:31;99360.56;;;0.91;86.62
71996;BME280;59862;47.732;7.346;2023-01-24T05:49:59;99362.30;;;0.99;86.42
71996;BME280;59862;47.732;7.346;2023-01-24T05:52:26;99361.91;;;0.98;86.30
71996;BME280;59862;47.732;7.346;2023-01-24T05:54:54;99365.97;;;0.97;86.26
71996;BME280;59862;47.732;7.346;2023-01-24T05:57:22;99375.09;;;0.84;86.36
71996;BME280;59862;47.732;7.346;2023-01-24T05:59:49;99378.30;;;0.89;86.48
71996;BME280;59862;47.732;7.346;2023-01-24T06:02:17;99377.94;;;0.88;86.50
71996;BME280;59862;47.732;7.346;2023-01-24T06:04:44;99378.69;;;0.90;86.44
71996;BME280;59862;47.732;7.346;2023-01-24T06:07:12;99380.67;;;0.87;86.41
71996;BME280;59862;47.732;7.346;2023-01-24T06:09:39;99382.46;;;0.86;86.57
71996;BME280;59862;47.732;7.346;2023-01-24T06:12:07;99382.26;;;0.89;86.51
71996;BME280;59862;47.732;7.346;2023-01-24T06:14:34;99381.89;;;0.88;86.50
71996;BME280;59862;47.732;7.346;2023-01-24T06:17:01;99386.63;;;0.90;86.39
71996;BME280;59862;47.732;7.346;2023-01-24T06:19:29;99394.75;;;0.94;86.35
71996;BME280;59862;47.732;7.346;2023-01-24T06:22:01;99390.02;;;0.92;86.28
71996;BME280;59862;47.732;7.346;2023-01-24T06:24:28;99396.33;;;0.90;86.26
71996;BME280;59862;47.732;7.346;2023-01-24T06:26:57;99395.38;;;0.84;86.30
71996;BME280;59862;47.732;7.346;2023-01-24T06:29:24;99396.98;;;0.86;86.45
71996;BME280;59862;47.732;7.346;2023-01-24T06:35:17;99409.77;;;1.01;86.33
71996;BME280;59862;47.732;7.346;2023-01-24T06:39:53;99400.59;;;0.92;86.05
71996;BME280;59862;47.732;7.346;2023-01-24T06:42:22;99406.80;;;0.91;86.19
71996;BME280;59862;47.732;7.346;2023-01-24T06:44:50;99404.16;;;0.84;86.35
71996;BME280;59862;47.732;7.346;2023-01-24T06:47:17;99411.88;;;0.87;86.40
71996;BME280;59862;47.732;7.346;2023-01-24T06:49:45;99407.95;;;0.94;86.38
71996;BME280;59862;47.732;7.346;2023-01-24T06:52:12;99402.31;;;0.93;86.30
71996;BME280;59862;47.732;7.346;2023-01-24T06:54:40;99409.84;;;0.92;86.29
71996;BME280;59862;47.732;7.346;2023-01-24T06:57:07;99411.63;;;0.92;86.27
71996;BME280;59862;47.732;7.346;2023-01-24T06:59:35;99418.52;;;0.94;86.30
71996;BME280;59862;47.732;7.346;2023-01-24T07:02:03;99420.97;;;0.90;86.31
71996;BME280;59862;47.732;7.346;2023-01-24T07:04:30;99427.61;;;0.97;86.31
71996;BME280;59862;47.732;7.346;2023-01-24T07:06:58;99418.79;;;0.90;86.31
71996;BME280;59862;47.732;7.346;2023-01-24T07:09:25;99434.94;;;0.92;86.37
71996;BME280;59862;47.732;7.346;2023-01-24T07:11:54;99430.37;;;0.87;86.44
71996;BME280;59862;47.732;7.346;2023-01-24T07:14:24;99436.42;;;0.82;86.50
71996;BME280;59862;47.732;7.346;2023-01-24T07:16:52;99446.17;;;0.89;86.55
71996;BME280;59862;47.732;7.346;2023-01-24T07:19:22;99438.30;;;0.87;86.52
71996;BME280;59862;47.732;7.346;2023-01-24T07:21:52;99443.59;;;0.87;86.56
71996;BME280;59862;47.732;7.346;2023-01-24T07:24:25;99453.27;;;0.95;86.53
71996;BME280;59862;47.732;7.346;2023-01-24T07:26:54;99448.91;;;0.94;86.47
71996;BME280;59862;47.732;7.346;2023-01-24T07:29:22;99457.30;;;0.94;86.48
71996;BME280;59862;47.732;7.346;2023-01-24T07:31:50;99452.52;;;0.93;86.41
71996;BME280;59862;47.732;7.346;2023-01-24T07:34:20;99459.68;;;0.98;86.46
71996;BME280;59862;47.732;7.346;2023-01-24T07:36:48;99456.68;;;1.04;86.40
71996;BME280;59862;47.732;7.346;2023-01-24T07:39:16;99465.77;;;1.07;86.28
71996;BME280;59862;47.732;7.346;2023-01-24T07:41:43;99467.09;;;1.07;86.06
71996;BME280;59862;47.732;7.346;2023-01-24T07:44:12;99472.97;;;1.12;85.93
71996;BME280;59862;47.732;7.346;2023-01-24T07:46:40;99466.59;;;1.01;85.92
71996;BME280;59862;47.732;7.346;2023-01-24T07:49:08;99475.41;;;1.08;86.00
71996;BME280;59862;47.732;7.346;2023-01-24T07:51:35;99466.06;;;1.10;85.94
71996;BME280;59862;47.732;7.346;2023-01-24T07:54:02;99469.17;;;1.09;85.88
71996;BME280;59862;47.732;7.346;2023-01-24T07:56:30;99466.33;;;1.05;85.96
71996;BME280;59862;47.732;7.346;2023-01-24T07:58:58;99466.16;;;1.08;85.94
71996;BME280;59862;47.732;7.346;2023-01-24T08:01:26;99473.95;;;1.03;85.96
71996;BME280;59862;47.732;7.346;2023-01-24T08:03:55;99478.02;;;1.01;86.07
71996;BME280;59862;47.732;7.346;2023-01-24T08:06:24;99478.38;;;1.02;86.18
71996;BME280;59862;47.732;7.346;2023-01-24T08:08:51;99486.52;;;1.06;86.09
71996;BME280;59862;47.732;7.346;2023-01-24T08:11:19;99490.31;;;1.09;86.06
71996;BME280;59862;47.732;7.346;2023-01-24T08:13:48;99489.34;;;1.03;86.09
71996;BME280;59862;47.732;7.346;2023-01-24T08:16:19;99496.36;;;1.11;86.13
71996;BME280;59862;47.732;7.346;2023-01-24T08:18:48;99497.02;;;1.08;86.04
71996;BME280;59862;47.732;7.346;2023-01-24T08:21:15;99504.13;;;1.14;86.05
71996;BME280;59862;47.732;7.346;2023-01-24T08:23:42;99504.13;;;1.14;85.91
71996;BME280;59862;47.732;7.346;2023-01-24T08:26:10;99509.98;;;1.19;85.85
71996;BME280;59862;47.732;7.346;2023-01-24T08:28:37;99512.86;;;1.23;85.74
71996;BME280;59862;47.732;7.346;2023-01-24T08:31:05;99513.62;;;1.25;85.68
71996;BME280;59862;47.732;7.346;2023-01-24T08:33:32;99514.18;;;1.30;85.53
71996;BME280;59862;47.732;7.346;2023-01-24T08:36:01;99515.05;;;1.31;85.36
71996;BME280;59862;47.732;7.346;2023-01-24T08:38:29;99521.91;;;1.26;85.24
71996;BME280;59862;47.732;7.346;2023-01-24T08:40:56;99520.89;;;1.29;85.23
71996;BME280;59862;47.732;7.346;2023-01-24T08:43:23;99517.25;;;1.16;85.36
71996;BME280;59862;47.732;7.346;2023-01-24T08:45:55;99521.31;;;1.21;85.57
71996;BME280;59862;47.732;7.346;2023-01-24T08:48:22;99523.70;;;1.26;85.58
71996;BME280;59862;47.732;7.346;2023-01-24T08:50:50;99523.96;;;1.21;85.48
71996;BME280;59862;47.732;7.346;2023-01-24T08:53:17;99529.75;;;1.28;85.49
71996;BME280;59862;47.732;7.346;2023-01-24T08:55:47;99527.60;;;1.34;85.36
71996;BME280;59862;47.732;7.346;2023-01-24T08:58:13;99530.67;;;1.42;85.14
71996;BME280;59862;47.732;7.346;2023-01-24T09:00:41;99527.14;;;1.35;85.07
71996;BME280;59862;47.732;7.346;2023-01-24T09:03:10;99530.58;;;1.44;85.24
71996;BME280;59862;47.732;7.346;2023-01-24T09:05:38;99532.00;;;1.42;85.11
71996;BME280;59862;47.732;7.346;2023-01-24T09:08:06;99529.42;;;1.41;85.07
71996;BME280;59862;47.732;7.346;2023-01-24T09:10:34;99530.52;;;1.52;84.93
71996;BME280;59862;47.732;7.346;2023-01-24T09:13:03;99531.27;;;1.54;84.66
71996;BME280;59862;47.732;7.346;2023-01-24T09:15:30;99536.95;;;1.63;84.42
71996;BME280;59862;47.732;7.346;2023-01-24T09:18:01;99536.44;;;1.79;84.37
71996;BME280;59862;47.732;7.346;2023-01-24T09:20:29;99534.73;;;1.71;83.93
71996;BME280;59862;47.732;7.346;2023-01-24T09:22:57;99535.27;;;1.62;84.07
71996;BME280;59862;47.732;7.346;2023-01-24T09:25:24;99531.66;;;1.63;84.23
71996;BME280;59862;47.732;7.346;2023-01-24T09:27:56;99539.59;;;1.63;84.42
71996;BME280;59862;47.732;7.346;2023-01-24T09:30:23;99542.38;;;1.68;84.25
71996;BME280;59862;47.732;7.346;2023-01-24T09:32:51;99536.78;;;1.66;84.19
71996;BME280;59862;47.732;7.346;2023-01-24T09:35:18;99541.48;;;1.61;84.14
71996;BME280;59862;47.732;7.346;2023-01-24T09:37:46;99538.08;;;1.59;84.45
71996;BME280;59862;47.732;7.346;2023-01-24T09:40:25;99536.13;;;1.62;84.52
71996;BME280;59862;47.732;7.346;2023-01-24T09:43:03;99538.77;;;1.62;84.41
71996;BME280;59862;47.732;7.346;2023-01-24T09:45:32;99540.83;;;1.57;84.41
71996;BME280;59862;47.732;7.346;2023-01-24T09:48:02;99537.02;;;1.54;84.72
71996;BME280;59862;47.732;7.346;2023-01-24T09:50:38;99544.13;;;1.61;84.62
71996;BME280;59862;47.732;7.346;2023-01-24T09:53:12;99543.40;;;1.66;84.53
71996;BME280;59862;47.732;7.346;2023-01-24T09:55:40;99546.44;;;1.74;84.43
71996;BME280;59862;47.732;7.346;2023-01-24T10:00:51;99552.88;;;1.77;84.07
71996;BME280;59862;47.732;7.346;2023-01-24T10:03:21;99551.27;;;1.74;84.19
71996;BME280;59862;47.732;7.346;2023-01-24T10:05:51;99551.53;;;1.70;84.27
71996;BME280;59862;47.732;7.346;2023-01-24T10:08:34;99550.59;;;1.78;84.22
71996;BME280;59862;47.732;7.346;2023-01-24T10:11:21;99559.59;;;1.82;83.98
71996;BME280;59862;47.732;7.346;2023-01-24T10:25:06;99563.23;;;1.66;84.48
71996;BME280;59862;47.732;7.346;2023-01-24T10:27:38;99560.59;;;1.66;84.48
71996;BME280;59862;47.732;7.346;2023-01-24T10:30:26;99562.11;;;1.70;84.53
71996;BME280;59862;47.732;7.346;2023-01-24T10:32:55;99561.38;;;1.75;84.44
71996;BME280;59862;47.732;7.346;2023-01-24T10:35:28;99566.60;;;1.83;84.19
71996;BME280;59862;47.732;7.346;2023-01-24T10:37:57;99558.34;;;1.74;84.28
71996;BME280;59862;47.732;7.346;2023-01-24T10:40:25;99556.41;;;1.91;84.25
71996;BME280;59862;47.732;7.346;2023-01-24T10:42:54;99560.13;;;2.03;83.93
71996;BME280;59862;47.732;7.346;2023-01-24T10:45:45;99553.02;;;2.10;83.63
71996;BME280;59862;47.732;7.346;2023-01-24T10:50:48;99558.80;;;2.17;83.51
71996;BME280;59862;47.732;7.346;2023-01-24T10:53:22;99555.41;;;2.22;83.23
71996;BME280;59862;47.732;7.346;2023-01-24T10:55:47;99556.55;;;2.18;83.15
71996;BME280;59862;47.732;7.346;2023-01-24T11:01:04;99550.00;;;2.02;83.55
71996;BME280;59862;47.732;7.346;2023-01-24T11:03:33;99553.32;;;2.13;83.66
71996;BME280;59862;47.732;7.346;2023-01-24T11:06:03;99550.39;;;2.17;83.59
71996;BME280;59862;47.732;7.346;2023-01-24T11:08:37;99545.56;;;2.17;83.38
71996;BME280;59862;47.732;7.346;2023-01-24T11:11:31;99545.49;;;2.18;83.45
71996;BME280;59862;47.732;7.346;2023-01-24T11:13:55;99541.80;;;2.28;83.37
71996;BME280;59862;47.732;7.346;2023-01-24T11:16:30;99550.31;;;2.33;83.12
71996;BME280;59862;47.732;7.346;2023-01-24T11:19:00;99550.11;;;2.36;82.85
71996;BME280;59862;47.732;7.346;2023-01-24T11:21:29;99547.27;;;2.32;83.00
71996;BME280;59862;47.732;7.346;2023-01-24T11:24:13;99545.58;;;2.24;83.22
71996;BME280;59862;47.732;7.346;2023-01-24T11:26:33;99545.68;;;2.22;83.35
71996;BME280;59862;47.732;7.346;2023-01-24T11:31:43;99538.95;;;2.17;83.62
71996;BME280;59862;47.732;7.346;2023-01-24T11:37:01;99540.28;;;2.10;84.30
71996;BME280;59862;47.732;7.346;2023-01-24T11:42:19;99539.14;;;2.28;83.82
71996;BME280;59862;47.732;7.346;2023-01-24T11:47:44;99536.11;;;2.13;84.01
71996;BME280;59862;47.732;7.346;2023-01-24T11:52:55;99536.20;;;2.04;84.19
71996;BME280;59862;47.732;7.346;2023-01-24T11:55:53;99539.88;;;2.02;84.45
71996;BME280;59862;47.732;7.346;2023-01-24T12:01:23;99528.16;;;2.06;84.62
71996;BME280;59862;47.732;7.346;2023-01-24T12:04:21;;;;1.98;84.58
71996;BME280;59862;47.732;7.346;2023-01-24T12:09:24;99515.59;;;2.09;84.79
71996;BME280;59862;47.732;7.346;2023-01-24T12:12:25;99518.25;;;2.09;84.66
71996;BME280;59862;47.732;7.346;2023-01-24T12:23:14;99504.98;;;1.95;84.77
71996;BME280;59862;47.732;7.346;2023-01-24T12:25:39;99506.02;;;1.93;85.12
71996;BME280;59862;47.732;7.346;2023-01-24T12:28:10;99504.53;;;2.03;85.25
71996;BME280;59862;47.732;7.346;2023-01-24T12:30:43;99506.61;;;2.05;85.16
71996;BME280;59862;47.732;7.346;2023-01-24T12:33:22;99512.66;;;2.07;85.03
71996;BME280;59862;47.732;7.346;2023-01-24T12:35:54;99509.81;;;2.17;84.92
71996;BME280;59862;47.732;7.346;2023-01-24T12:38:26;99512.48;;;2.24;84.53
71996;BME280;59862;47.732;7.346;2023-01-24T12:43:47;99513.22;;;2.19;84.36
71996;BME280;59862;47.732;7.346;2023-01-24T12:46:32;99511.90;;;2.19;84.32
71996;BME280;59862;47.732;7.346;2023-01-24T12:52:21;99502.45;;;2.15;84.51
71996;BME280;59862;47.732;7.346;2023-01-24T12:54:58;99501.12;;;2.15;84.50
71996;BME280;59862;47.732;7.346;2023-01-24T12:57:35;99499.73;;;2.16;84.62
71996;BME280;59862;47.732;7.346;2023-01-24T13:00:01;99495.75;;;2.16;84.51
71996;BME280;59862;47.732;7.346;2023-01-24T13:03:00;99498.47;;;2.15;84.50
71996;BME280;59862;47.732;7.346;2023-01-24T13:05:37;99496.70;;;2.22;84.61
71996;BME280;59862;47.732;7.346;2023-01-24T13:08:08;99497.73;;;2.27;84.39
71996;BME280;59862;47.732;7.346;2023-01-24T13:10:52;99492.61;;;2.24;84.50
71996;BME280;59862;47.732;7.346;2023-01-24T13:13:25;99500.45;;;2.25;84.36
71996;BME280;59862;47.732;7.346;2023-01-24T13:21:34;99495.27;;;2.24;84.00
71996;BME280;59862;47.732;7.346;2023-01-24T13:24:22;99498.84;;;2.30;84.07
71996;BME280;59862;47.732;7.346;2023-01-24T13:27:23;99495.45;;;2.35;84.04
71996;BME280;59862;47.732;7.346;2023-01-24T13:32:46;99502.83;;;2.37;83.79
71996;BME280;59862;47.732;7.346;2023-01-24T13:35:21;99504.90;;;2.32;83.81
71996;BME280;59862;47.732;7.346;2023-01-24T13:38:15;99507.55;;;2.32;83.91
71996;BME280;59862;47.732;7.346;2023-01-24T13:40:35;99511.05;;;2.33;84.00
71996;BME280;59862;47.732;7.346;2023-01-24T13:43:04;99509.27;;;2.33;84.00
71996;BME280;59862;47.732;7.346;2023-01-24T13:45:40;99519.11;;;2.31;83.94
71996;BME280;59862;47.732;7.346;2023-01-24T13:48:53;99513.63;;;2.27;84.17
71996;BME280;59862;47.732;7.346;2023-01-24T13:51:21;99502.64;;;2.33;84.10
71996;BME280;59862;47.732;7.346;2023-01-24T13:53:39;99503.77;;;2.43;83.91
71996;BME280;59862;47.732;7.346;2023-01-24T13:56:01;99511.31;;;2.49;83.80
71996;BME280;59862;47.732;7.346;2023-01-24T13:58:29;99510.85;;;2.57;83.55
71996;BME280;59862;47.732;7.346;2023-01-24T14:00:58;99511.31;;;2.56;83.38
71996;BME280;59862;47.732;7.346;2023-01-24T14:03:37;99504.16;;;2.51;83.34
71996;BME280;59862;47.732;7.346;2023-01-24T14:06:10;99508.31;;;2.55;83.15
71996;BME280;59862;47.732;7.346;2023-01-24T14:08:41;99505.09;;;2.57;83.19
71996;BME280;59862;47.732;7.346;2023-01-24T14:21:52;99508.67;;;2.56;83.29
71996;BME280;59862;47.732;7.346;2023-01-24T14:27:18;99506.77;;;2.58;83.33
71996;BME280;59862;47.732;7.346;2023-01-24T14:29:48;99500.64;;;2.51;83.47
71996;BME280;59862;47.732;7.346;2023-01-24T14:32:29;99509.99;;;2.49;83.82
71996;BME280;59862;47.732;7.346;2023-01-24T14:37:49;99521.76;;;2.38;84.44
71996;BME280;59862;47.732;7.346;2023-01-24T14:40:28;99521.55;;;2.41;84.54
71996;BME280;59862;47.732;7.346;2023-01-24T14:43:01;99518.15;;;2.39;84.36
71996;BME280;59862;47.732;7.346;2023-01-24T14:45:31;99515.67;;;2.36;84.48
71996;BME280;59862;47.732;7.346;2023-01-24T14:48:00;99517.79;;;2.38;84.36
71996;BME280;59862;47.732;7.346;2023-01-24T14:50:31;99518.72;;;2.37;84.38
71996;BME280;59862;47.732;7.346;2023-01-24T14:53:00;99523.45;;;2.39;84.28
71996;BME280;59862;47.732;7.346;2023-01-24T14:55:33;99522.69;;;2.30;84.40
71996;BME280;59862;47.732;7.346;2023-01-24T14:58:25;99531.13;;;2.29;84.54
71996;BME280;59862;47.732;7.346;2023-01-24T15:00:52;99528.38;;;2.38;84.56